createdAt,value
2023-05-03T00:00:53.648Z, 38.05
2023-05-03T00:01:53.696Z, 38.04
2023-05-03T00:02:53.727Z, 38.04
2023-05-03T00:03:53.654Z, 38.04
2023-05-03T00:04:53.802Z, 38.04
2023-05-03T00:05:53.663Z, 38.03
2023-05-03T00:06:53.830Z, 38.04
2023-05-03T00:07:53.724Z, 37.99
2023-05-03T00:08:53.724Z, 37.97
2023-05-03T00:09:53.705Z, 38.02
2023-05-03T00:10:53.757Z, 37.98
2023-05-03T00:11:53.749Z, 37.96
2023-05-03T00:12:53.759Z, 38.01
2023-05-03T00:13:53.837Z, 37.93
2023-05-03T00:14:53.822Z, 37.92
2023-05-03T00:15:53.842Z, 37.89
2023-05-03T00:16:53.854Z, 37.92
2023-05-03T00:17:53.950Z, 37.90
2023-05-03T00:18:53.865Z, 37.88
2023-05-03T00:19:53.860Z, 37.88
2023-05-03T00:20:53.912Z, 37.85
2023-05-03T00:21:53.880Z, 37.89
2023-05-03T00:22:53.876Z, 37.88
2023-05-03T00:23:53.938Z, 37.86
2023-05-03T00:24:53.907Z, 37.87
2023-05-03T00:25:53.942Z, 37.84
2023-05-03T00:26:53.924Z, 37.86
2023-05-03T00:27:53.920Z, 37.85
2023-05-03T00:28:53.940Z, 37.81
2023-05-03T00:29:53.945Z, 37.83
2023-05-03T00:30:54.126Z, 37.77
2023-05-03T00:31:53.996Z, 37.79
2023-05-03T00:32:54.093Z, 37.81
2023-05-03T00:33:54.026Z, 37.76
2023-05-03T00:34:54.081Z, 37.71
2023-05-03T00:35:54.075Z, 37.70
2023-05-03T00:36:54.062Z, 37.72
2023-05-03T00:37:54.073Z, 37.64
2023-05-03T00:38:54.073Z, 37.66
2023-05-03T00:39:54.105Z, 37.71
2023-05-03T00:40:54.076Z, 37.69
2023-05-03T00:41:54.182Z, 37.70
2023-05-03T00:42:54.142Z, 37.71
2023-05-03T00:43:54.149Z, 37.72
2023-05-03T00:44:55.829Z, 37.71
2023-05-03T00:45:57.241Z, 37.69
2023-05-03T00:46:54.163Z, 37.65
2023-05-03T00:47:54.230Z, 37.64
2023-05-03T00:48:54.164Z, 37.63
2023-05-03T00:49:54.162Z, 37.60
2023-05-03T00:50:54.182Z, 37.57
2023-05-03T00:51:54.205Z, 37.58
2023-05-03T00:52:54.291Z, 37.59
2023-05-03T00:53:54.276Z, 37.62
2023-05-03T00:54:54.310Z, 37.59
2023-05-03T00:55:54.309Z, 37.58
2023-05-03T00:56:54.353Z, 37.56
2023-05-03T00:57:54.330Z, 37.49
2023-05-03T00:58:54.326Z, 37.50
2023-05-03T00:59:54.340Z, 37.48
2023-05-03T01:00:54.341Z, 37.46
2023-05-03T01:01:54.440Z, 37.44
2023-05-03T01:02:54.596Z, 37.45
2023-05-03T01:03:54.487Z, 37.45
2023-05-03T01:04:54.383Z, 37.48
2023-05-03T01:05:54.383Z, 37.50
2023-05-03T01:06:54.478Z, 37.46
2023-05-03T01:07:54.389Z, 37.47
2023-05-03T01:08:54.409Z, 37.41
2023-05-03T01:09:54.430Z, 37.37
2023-05-03T01:10:54.431Z, 37.38
2023-05-03T01:11:54.523Z, 37.41
2023-05-03T01:12:54.474Z, 37.43
2023-05-03T01:13:54.503Z, 37.42
2023-05-03T01:14:54.474Z, 37.40
2023-05-03T01:15:54.600Z, 37.40
2023-05-03T01:16:54.551Z, 37.39
2023-05-03T01:17:54.621Z, 37.40
2023-05-03T01:18:54.536Z, 37.34
2023-05-03T01:19:54.622Z, 37.38
2023-05-03T01:20:54.593Z, 37.37
2023-05-03T01:21:54.592Z, 37.30
2023-05-03T01:22:54.665Z, 37.27
2023-05-03T01:23:54.652Z, 37.28
2023-05-03T01:24:54.688Z, 37.24
2023-05-03T01:25:54.661Z, 37.23
2023-05-03T01:26:54.664Z, 37.25
2023-05-03T01:27:54.718Z, 37.25
2023-05-03T01:28:54.718Z, 37.24
2023-05-03T01:29:54.721Z, 37.22
2023-05-03T01:30:54.712Z, 37.22
2023-05-03T01:31:54.832Z, 37.18
2023-05-03T01:32:54.797Z, 37.22
2023-05-03T01:33:54.806Z, 37.18
2023-05-03T01:34:54.785Z, 37.20
2023-05-03T01:35:54.797Z, 37.18
2023-05-03T01:36:54.846Z, 37.20
2023-05-03T01:37:54.811Z, 37.13
2023-05-03T01:38:54.832Z, 37.16
2023-05-03T01:39:54.820Z, 37.15
2023-05-03T01:40:54.848Z, 37.18
2023-05-03T01:41:54.820Z, 37.14
2023-05-03T01:42:54.917Z, 37.13
2023-05-03T01:43:54.882Z, 37.13
2023-05-03T01:44:54.943Z, 37.11
2023-05-03T01:45:54.939Z, 37.13
2023-05-03T01:46:54.973Z, 37.09
2023-05-03T01:47:54.972Z, 37.11
2023-05-03T01:48:54.963Z, 37.09
2023-05-03T01:49:54.950Z, 37.09
2023-05-03T01:50:54.953Z, 37.06
2023-05-03T01:51:55.052Z, 37.06
2023-05-03T01:52:54.983Z, 37.04
2023-05-03T01:53:54.979Z, 37.01
2023-05-03T01:54:55.083Z, 36.99
2023-05-03T01:55:55.057Z, 37.00
2023-05-03T01:56:55.030Z, 37.00
2023-05-03T01:57:55.034Z, 36.98
2023-05-03T01:58:55.102Z, 37.00
2023-05-03T01:59:55.088Z, 36.99
2023-05-03T02:00:55.131Z, 37.00
2023-05-03T02:01:55.119Z, 36.98
2023-05-03T02:02:55.243Z, 37.01
2023-05-03T02:03:55.183Z, 36.97
2023-05-03T02:04:55.243Z, 36.95
2023-05-03T02:05:55.141Z, 36.95
2023-05-03T02:06:55.171Z, 36.93
2023-05-03T02:07:55.147Z, 36.91
2023-05-03T02:08:55.215Z, 36.89
2023-05-03T02:09:55.185Z, 36.91
2023-05-03T02:10:55.282Z, 36.92
2023-05-03T02:11:55.235Z, 36.88
2023-05-03T02:12:55.291Z, 36.88
2023-05-03T02:13:55.270Z, 36.82
2023-05-03T02:14:55.276Z, 36.83
2023-05-03T02:15:55.270Z, 36.85
2023-05-03T02:16:55.390Z, 36.85
2023-05-03T02:17:55.349Z, 36.86
2023-05-03T02:18:55.343Z, 36.82
2023-05-03T02:19:55.309Z, 36.81
2023-05-03T02:20:55.353Z, 36.79
2023-05-03T02:21:55.344Z, 36.80
2023-05-03T02:22:55.342Z, 36.80
2023-05-03T02:23:55.353Z, 36.79
2023-05-03T02:24:55.356Z, 36.77
2023-05-03T02:25:55.442Z, 36.75
2023-05-03T02:26:55.404Z, 36.75
2023-05-03T02:27:55.407Z, 36.73
2023-05-03T02:28:55.417Z, 36.73
2023-05-03T02:29:55.482Z, 36.72
2023-05-03T02:30:55.500Z, 36.66
2023-05-03T02:31:55.444Z, 36.67
2023-05-03T02:32:55.546Z, 36.68
2023-05-03T02:33:55.505Z, 36.64
2023-05-03T02:34:55.481Z, 36.67
2023-05-03T02:35:55.488Z, 36.65
2023-05-03T02:36:55.499Z, 36.66
2023-05-03T02:37:55.520Z, 36.64
2023-05-03T02:38:55.616Z, 36.63
2023-05-03T02:39:55.578Z, 36.60
2023-05-03T02:40:55.631Z, 36.63
2023-05-03T02:41:55.615Z, 36.60
2023-05-03T02:42:55.613Z, 36.56
2023-05-03T02:43:55.612Z, 36.55
2023-05-03T02:44:55.642Z, 36.57
2023-05-03T02:45:55.683Z, 36.59
2023-05-03T02:46:55.651Z, 36.55
2023-05-03T02:47:55.669Z, 36.55
2023-05-03T02:48:55.666Z, 36.55
2023-05-03T02:49:55.738Z, 36.55
2023-05-03T02:50:55.720Z, 36.52
2023-05-03T02:51:55.774Z, 36.49
2023-05-03T02:52:55.748Z, 36.50
2023-05-03T02:53:55.795Z, 36.49
2023-05-03T02:54:55.753Z, 36.48
2023-05-03T02:55:55.814Z, 36.48
2023-05-03T02:56:55.790Z, 36.47
2023-05-03T02:57:55.851Z, 36.50
2023-05-03T02:58:55.806Z, 36.48
2023-05-03T02:59:55.811Z, 36.48
2023-05-03T03:00:55.806Z, 36.45
2023-05-03T03:01:55.818Z, 36.41
2023-05-03T03:02:55.969Z, 36.41
2023-05-03T03:03:55.925Z, 36.38
2023-05-03T03:04:55.835Z, 36.37
2023-05-03T03:05:55.855Z, 36.38
2023-05-03T03:06:55.930Z, 36.37
2023-05-03T03:07:55.902Z, 36.36
2023-05-03T03:08:55.979Z, 36.35
2023-05-03T03:09:55.937Z, 36.35
2023-05-03T03:10:55.958Z, 36.39
2023-05-03T03:11:55.935Z, 36.38
2023-05-03T03:12:56.017Z, 36.33
2023-05-03T03:13:56.006Z, 36.37
2023-05-03T03:14:56.004Z, 36.41
2023-05-03T03:15:56.068Z, 36.39
2023-05-03T03:16:55.999Z, 36.37
2023-05-03T03:17:56.031Z, 36.31
2023-05-03T03:18:56.018Z, 36.30
2023-05-03T03:19:56.031Z, 36.35
2023-05-03T03:20:56.031Z, 36.36
2023-05-03T03:21:56.056Z, 36.27
2023-05-03T03:22:56.076Z, 36.27
2023-05-03T03:23:56.082Z, 36.27
2023-05-03T03:24:56.106Z, 36.26
2023-05-03T03:25:56.093Z, 36.25
2023-05-03T03:26:56.203Z, 36.26
2023-05-03T03:27:56.156Z, 36.26
2023-05-03T03:28:56.190Z, 36.21
2023-05-03T03:29:56.167Z, 36.23
2023-05-03T03:30:56.191Z, 36.27
2023-05-03T03:31:56.254Z, 37.27
2023-05-03T03:32:56.207Z, 39.15
2023-05-03T03:33:56.234Z, 40.78
2023-05-03T03:34:56.234Z, 41.85
2023-05-03T03:35:56.313Z, 42.63
2023-05-03T03:36:56.284Z, 43.20
2023-05-03T03:37:56.302Z, 43.61
2023-05-03T03:38:56.294Z, 44.04
2023-05-03T03:39:56.365Z, 44.42
2023-05-03T03:40:56.454Z, 44.78
2023-05-03T03:41:56.401Z, 45.11
2023-05-03T03:42:56.401Z, 45.46
2023-05-03T03:43:56.402Z, 45.81
2023-05-03T03:44:56.406Z, 46.14
2023-05-03T03:45:56.397Z, 46.45
2023-05-03T03:46:56.457Z, 46.80
2023-05-03T03:47:56.445Z, 47.03
2023-05-03T03:48:56.415Z, 47.26
2023-05-03T03:49:56.415Z, 47.47
2023-05-03T03:50:56.417Z, 47.64
2023-05-03T03:51:56.485Z, 47.81
2023-05-03T03:52:56.465Z, 47.99
2023-05-03T03:53:56.514Z, 48.16
2023-05-03T03:54:56.486Z, 48.26
2023-05-03T03:55:56.513Z, 48.39
2023-05-03T03:56:56.501Z, 48.52
2023-05-03T03:57:56.510Z, 48.59
2023-05-03T03:58:56.533Z, 48.71
2023-05-03T03:59:56.521Z, 48.82
2023-05-03T04:00:56.600Z, 48.99
2023-05-03T04:01:56.596Z, 49.03
2023-05-03T04:02:56.712Z, 49.04
2023-05-03T04:03:56.781Z, 48.87
2023-05-03T04:04:56.665Z, 48.68
2023-05-03T04:05:56.641Z, 48.43
2023-05-03T04:06:56.639Z, 48.55
2023-05-03T04:07:56.705Z, 48.72
2023-05-03T04:08:56.673Z, 48.94
2023-05-03T04:09:56.687Z, 49.11
2023-05-03T04:10:56.681Z, 49.19
2023-05-03T04:11:56.682Z, 49.17
2023-05-03T04:12:56.679Z, 49.14
2023-05-03T04:13:56.699Z, 49.05
2023-05-03T04:14:56.726Z, 49.03
2023-05-03T04:15:56.723Z, 48.92
2023-05-03T04:16:56.863Z, 48.79
2023-05-03T04:17:56.869Z, 48.46
2023-05-03T04:18:56.790Z, 48.20
2023-05-03T04:19:56.802Z, 48.02
2023-05-03T04:20:56.805Z, 47.94
2023-05-03T04:21:56.877Z, 47.73
2023-05-03T04:22:56.865Z, 47.59
2023-05-03T04:23:56.878Z, 47.48
2023-05-03T04:24:56.869Z, 47.37
2023-05-03T04:25:56.869Z, 47.25
2023-05-03T04:26:56.870Z, 47.24
2023-05-03T04:27:56.906Z, 47.15
2023-05-03T04:28:56.958Z, 47.12
2023-05-03T04:29:56.944Z, 47.05
2023-05-03T04:30:57.017Z, 46.99
2023-05-03T04:31:56.940Z, 46.96
2023-05-03T04:32:57.014Z, 46.86
2023-05-03T04:33:56.950Z, 46.80
2023-05-03T04:34:56.965Z, 46.79
2023-05-03T04:35:56.978Z, 46.74
2023-05-03T04:36:56.997Z, 46.70
2023-05-03T04:37:56.991Z, 46.71
2023-05-03T04:38:57.001Z, 46.65
2023-05-03T04:39:57.108Z, 46.60
2023-05-03T04:40:57.065Z, 46.51
2023-05-03T04:41:57.059Z, 46.51
2023-05-03T04:42:57.070Z, 46.47
2023-05-03T04:43:57.066Z, 46.45
2023-05-03T04:44:57.155Z, 46.39
2023-05-03T04:45:57.202Z, 46.38
2023-05-03T04:46:57.208Z, 46.31
2023-05-03T04:47:57.212Z, 46.27
2023-05-03T04:48:57.134Z, 46.25
2023-05-03T04:49:57.209Z, 46.22
2023-05-03T04:50:57.180Z, 46.20
2023-05-03T04:51:57.271Z, 46.19
2023-05-03T04:52:57.261Z, 46.20
2023-05-03T04:53:57.248Z, 46.28
2023-05-03T04:54:57.258Z, 46.55
2023-05-03T04:55:57.264Z, 46.73
2023-05-03T04:56:57.262Z, 46.73
2023-05-03T04:57:57.300Z, 46.71
2023-05-03T04:58:57.278Z, 46.65
2023-05-03T04:59:57.268Z, 46.60
2023-05-03T05:00:57.272Z, 46.52
2023-05-03T05:01:57.331Z, 46.48
2023-05-03T05:02:57.399Z, 46.43
2023-05-03T05:03:57.476Z, 46.37
2023-05-03T05:04:57.299Z, 46.37
2023-05-03T05:05:57.347Z, 46.30
2023-05-03T05:06:57.380Z, 46.22
2023-05-03T05:07:57.366Z, 46.15
2023-05-03T05:08:57.381Z, 46.05
2023-05-03T05:09:57.384Z, 45.96
2023-05-03T05:10:57.464Z, 45.90
2023-05-03T05:11:57.501Z, 45.94
2023-05-03T05:12:57.451Z, 45.91
2023-05-03T05:13:57.442Z, 45.86
2023-05-03T05:14:57.450Z, 45.84
2023-05-03T05:15:57.453Z, 45.78
2023-05-03T05:16:57.486Z, 45.90
2023-05-03T05:17:57.678Z, 45.98
2023-05-03T05:18:57.530Z, 46.00
2023-05-03T05:19:57.572Z, 45.95
2023-05-03T05:20:57.552Z, 45.80
2023-05-03T05:21:57.553Z, 45.70
2023-05-03T05:22:57.553Z, 45.67
2023-05-03T05:23:57.581Z, 45.65
2023-05-03T05:24:57.567Z, 45.56
2023-05-03T05:25:57.589Z, 45.51
2023-05-03T05:26:57.572Z, 45.46
2023-05-03T05:27:57.596Z, 45.45
2023-05-03T05:28:57.697Z, 45.42
2023-05-03T05:29:57.665Z, 45.37
2023-05-03T05:30:57.708Z, 45.33
2023-05-03T05:31:57.738Z, 45.31
2023-05-03T05:32:57.760Z, 45.31
2023-05-03T05:33:57.770Z, 45.29
2023-05-03T05:34:57.723Z, 45.26
2023-05-03T05:35:57.774Z, 45.23
2023-05-03T05:36:57.749Z, 45.25
2023-05-03T05:37:57.778Z, 45.21
2023-05-03T05:38:57.768Z, 45.17
2023-05-03T05:39:57.811Z, 45.14
2023-05-03T05:40:57.787Z, 45.15
2023-05-03T05:41:57.828Z, 45.18
2023-05-03T05:42:57.822Z, 45.12
2023-05-03T05:43:57.826Z, 45.06
2023-05-03T05:44:57.867Z, 45.01
2023-05-03T05:45:57.850Z, 44.98
2023-05-03T05:46:57.991Z, 45.00
2023-05-03T05:47:57.925Z, 45.95
2023-05-03T05:48:57.951Z, 49.16
2023-05-03T05:49:57.910Z, 53.11
2023-05-03T05:50:57.928Z, 57.92
2023-05-03T05:51:57.924Z, 67.14
2023-05-03T05:52:58.035Z, 64.74
2023-05-03T05:53:57.982Z, 58.24
2023-05-03T05:54:57.988Z, 57.50
2023-05-03T05:55:58.040Z, 57.77
2023-05-03T05:56:58.005Z, 58.33
2023-05-03T05:57:58.079Z, 58.61
2023-05-03T05:58:58.042Z, 59.07
2023-05-03T05:59:58.059Z, 59.26
2023-05-03T06:00:58.045Z, 59.47
2023-05-03T06:01:58.136Z, 59.76
2023-05-03T06:02:58.158Z, 60.23
2023-05-03T06:03:58.079Z, 60.93
2023-05-03T06:04:58.163Z, 61.62
2023-05-03T06:05:58.082Z, 62.40
2023-05-03T06:06:58.144Z, 61.37
2023-05-03T06:07:58.126Z, 59.17
2023-05-03T06:08:58.129Z, 58.43
2023-05-03T06:09:58.205Z, 57.72
2023-05-03T06:10:58.180Z, 57.65
2023-05-03T06:11:58.244Z, 57.71
2023-05-03T06:12:58.202Z, 57.72
2023-05-03T06:13:58.211Z, 57.68
2023-05-03T06:15:02.885Z, 57.72
2023-05-03T06:15:58.209Z, 57.63
2023-05-03T06:16:58.272Z, 57.58
2023-05-03T06:17:58.296Z, 57.47
2023-05-03T06:18:58.292Z, 57.40
2023-05-03T06:19:58.276Z, 57.32
2023-05-03T06:20:58.279Z, 57.18
2023-05-03T06:21:58.274Z, 57.17
2023-05-03T06:22:58.284Z, 57.10
2023-05-03T06:23:58.360Z, 57.03
2023-05-03T06:24:58.326Z, 56.88
2023-05-03T06:25:58.405Z, 56.74
2023-05-03T06:26:58.385Z, 56.56
2023-05-03T06:27:58.386Z, 56.48
2023-05-03T06:28:58.375Z, 56.37
2023-05-03T06:29:58.379Z, 56.25
2023-05-03T06:30:58.570Z, 56.13
2023-05-03T06:31:58.445Z, 56.05
2023-05-03T06:32:58.582Z, 55.92
2023-05-03T06:33:58.462Z, 55.81
2023-05-03T06:34:58.459Z, 55.76
2023-05-03T06:35:58.461Z, 55.66
2023-05-03T06:36:58.518Z, 55.58
2023-05-03T06:37:58.486Z, 55.49
2023-05-03T06:38:58.494Z, 55.34
2023-05-03T06:39:58.535Z, 55.29
2023-05-03T06:40:58.513Z, 55.23
2023-05-03T06:41:58.600Z, 55.04
2023-05-03T06:42:58.568Z, 54.99
2023-05-03T06:43:58.569Z, 55.07
2023-05-03T06:44:58.594Z, 54.95
2023-05-03T06:45:58.705Z, 54.80
2023-05-03T06:46:58.729Z, 54.75
2023-05-03T06:47:58.695Z, 54.70
2023-05-03T06:48:58.669Z, 54.70
2023-05-03T06:49:58.632Z, 54.62
2023-05-03T06:50:58.629Z, 54.58
2023-05-03T06:51:58.646Z, 54.52
2023-05-03T06:52:58.667Z, 54.47
2023-05-03T06:53:58.673Z, 54.47
2023-05-03T06:54:58.702Z, 54.38
2023-05-03T06:55:58.758Z, 54.38
2023-05-03T06:56:58.781Z, 54.35
2023-05-03T06:57:58.805Z, 54.37
2023-05-03T06:58:58.771Z, 54.25
2023-05-03T06:59:58.769Z, 54.24
2023-05-03T07:00:58.767Z, 54.20
2023-05-03T07:01:58.903Z, 54.13
2023-05-03T07:02:58.925Z, 54.10
2023-05-03T07:03:58.970Z, 54.07
2023-05-03T07:04:58.889Z, 54.04
2023-05-03T07:05:58.858Z, 54.05
2023-05-03T07:06:58.917Z, 53.98
2023-05-03T07:07:58.864Z, 53.97
2023-05-03T07:08:58.882Z, 53.85
2023-05-03T07:09:58.880Z, 53.88
2023-05-03T07:10:58.906Z, 53.84
2023-05-03T07:11:58.910Z, 53.79
2023-05-03T07:12:58.919Z, 53.86
2023-05-03T07:13:58.918Z, 53.83
2023-05-03T07:14:58.948Z, 53.74
2023-05-03T07:16:00.358Z, 53.74
2023-05-03T07:16:58.977Z, 53.70
2023-05-03T07:17:59.126Z, 53.69
2023-05-03T07:18:59.017Z, 53.63
2023-05-03T07:19:59.124Z, 53.61
2023-05-03T07:20:59.099Z, 53.63
2023-05-03T07:21:59.100Z, 53.61
2023-05-03T07:22:59.106Z, 53.57
2023-05-03T07:23:59.089Z, 53.59
2023-05-03T07:24:59.229Z, 53.52
2023-05-03T07:25:59.091Z, 53.50
2023-05-03T07:26:59.180Z, 53.44
2023-05-03T07:27:59.159Z, 53.44
2023-05-03T07:28:59.181Z, 53.46
2023-05-03T07:29:59.160Z, 53.40
2023-05-03T07:30:59.225Z, 53.42
2023-05-03T07:31:59.198Z, 53.37
2023-05-03T07:32:59.273Z, 53.37
2023-05-03T07:33:59.296Z, 53.38
2023-05-03T07:34:59.196Z, 53.41
2023-05-03T07:35:59.202Z, 53.37
2023-05-03T07:36:59.207Z, 53.36
2023-05-03T07:37:59.310Z, 53.26
2023-05-03T07:38:59.268Z, 53.16
2023-05-03T07:39:59.321Z, 53.13
2023-05-03T07:40:59.302Z, 53.13
2023-05-03T07:41:59.287Z, 53.03
2023-05-03T07:42:59.291Z, 53.00
2023-05-03T07:43:59.313Z, 53.08
2023-05-03T07:44:59.342Z, 52.99
2023-05-03T07:45:59.389Z, 52.92
2023-05-03T07:46:59.328Z, 52.84
2023-05-03T07:47:59.385Z, 52.92
2023-05-03T07:48:59.455Z, 52.93
2023-05-03T07:49:59.420Z, 52.94
2023-05-03T07:50:59.433Z, 52.86
2023-05-03T07:51:59.418Z, 52.81
2023-05-03T07:52:59.446Z, 52.88
2023-05-03T07:53:59.435Z, 52.87
2023-05-03T07:54:59.438Z, 52.86
2023-05-03T07:55:59.447Z, 52.79
2023-05-03T07:56:59.444Z, 52.83
2023-05-03T07:57:59.589Z, 52.79
2023-05-03T07:59:08.346Z, 52.76
2023-05-03T07:59:59.558Z, 52.79
2023-05-03T08:00:59.527Z, 52.73
2023-05-03T08:02:01.660Z, 52.76
2023-05-03T08:02:59.658Z, 52.73
2023-05-03T08:04:00.072Z, 52.69
2023-05-03T08:04:59.869Z, 52.58
2023-05-03T08:05:59.569Z, 52.50
2023-05-03T08:06:59.581Z, 52.62
2023-05-03T08:07:59.596Z, 52.55
2023-05-03T08:08:59.603Z, 52.51
2023-05-03T08:09:59.615Z, 52.59
2023-05-03T08:10:59.643Z, 52.52
2023-05-03T08:11:59.645Z, 52.56
2023-05-03T08:12:59.665Z, 52.50
2023-05-03T08:13:59.676Z, 52.50
2023-05-03T08:14:59.740Z, 52.48
2023-05-03T08:15:59.757Z, 52.46
2023-05-03T08:16:59.790Z, 52.41
2023-05-03T08:17:59.838Z, 52.40
2023-05-03T08:18:59.836Z, 52.31
2023-05-03T08:19:59.874Z, 52.31
2023-05-03T08:20:59.812Z, 52.32
2023-05-03T08:21:59.790Z, 52.34
2023-05-03T08:22:59.810Z, 52.33
2023-05-03T08:23:59.862Z, 52.28
2023-05-03T08:24:59.852Z, 52.26
2023-05-03T08:25:59.878Z, 52.22
2023-05-03T08:26:59.842Z, 52.22
2023-05-03T08:27:59.901Z, 52.09
2023-05-03T08:28:59.918Z, 52.12
2023-05-03T08:29:59.897Z, 52.13
2023-05-03T08:31:00.028Z, 52.08
2023-05-03T08:32:00.050Z, 52.04
2023-05-03T08:33:00.133Z, 52.07
2023-05-03T08:34:00.008Z, 52.02
2023-05-03T08:35:00.017Z, 52.04
2023-05-03T08:36:00.000Z, 51.98
2023-05-03T08:37:00.006Z, 51.98
2023-05-03T08:38:00.156Z, 51.94
2023-05-03T08:39:00.144Z, 51.98
2023-05-03T08:40:00.067Z, 51.99
2023-05-03T08:41:00.053Z, 51.97
2023-05-03T08:42:00.058Z, 52.02
2023-05-03T08:43:00.064Z, 51.98
2023-05-03T08:44:00.202Z, 52.02
2023-05-03T08:45:00.138Z, 51.89
2023-05-03T08:46:00.134Z, 51.87
2023-05-03T08:47:00.224Z, 51.88
2023-05-03T08:48:00.292Z, 51.83
2023-05-03T08:49:00.188Z, 51.76
2023-05-03T08:50:00.393Z, 51.76
2023-05-03T08:51:00.188Z, 51.78
2023-05-03T08:52:00.192Z, 51.87
2023-05-03T08:53:00.213Z, 51.79
2023-05-03T08:54:00.197Z, 51.73
2023-05-03T08:55:00.264Z, 51.67
2023-05-03T08:56:00.243Z, 51.69
2023-05-03T08:57:00.280Z, 51.65
2023-05-03T08:58:00.278Z, 51.74
2023-05-03T08:59:00.259Z, 51.69
2023-05-03T09:00:00.490Z, 51.67
2023-05-03T09:01:00.273Z, 51.63
2023-05-03T09:02:00.404Z, 51.64
2023-05-03T09:03:00.407Z, 51.58
2023-05-03T09:04:00.450Z, 51.54
2023-05-03T09:05:00.334Z, 51.53
2023-05-03T09:06:00.338Z, 51.43
2023-05-03T09:07:00.364Z, 51.38
2023-05-03T09:08:00.372Z, 51.50
2023-05-03T09:09:00.377Z, 51.56
2023-05-03T09:10:00.401Z, 51.57
2023-05-03T09:11:00.404Z, 51.54
2023-05-03T09:12:00.420Z, 51.46
2023-05-03T09:13:00.420Z, 51.39
2023-05-03T09:14:00.433Z, 51.41
2023-05-03T09:15:00.444Z, 51.47
2023-05-03T09:16:00.511Z, 51.40
2023-05-03T09:17:00.537Z, 51.34
2023-05-03T09:18:00.514Z, 51.30
2023-05-03T09:19:00.477Z, 51.24
2023-05-03T09:20:00.599Z, 51.20
2023-05-03T09:21:00.520Z, 51.15
2023-05-03T09:22:00.522Z, 51.17
2023-05-03T09:23:00.538Z, 51.21
2023-05-03T09:24:00.549Z, 51.24
2023-05-03T09:25:00.561Z, 51.20
2023-05-03T09:26:00.571Z, 51.20
2023-05-03T09:27:00.674Z, 51.24
2023-05-03T09:28:00.626Z, 51.16
2023-05-03T09:29:00.634Z, 51.19
2023-05-03T09:30:00.754Z, 51.18
2023-05-03T09:31:00.680Z, 51.06
2023-05-03T09:32:00.783Z, 51.07
2023-05-03T09:33:00.782Z, 51.03
2023-05-03T09:34:00.728Z, 50.97
2023-05-03T09:35:00.808Z, 51.00
2023-05-03T09:36:00.700Z, 50.97
2023-05-03T09:37:00.753Z, 50.89
2023-05-03T09:38:00.747Z, 51.04
2023-05-03T09:39:00.807Z, 50.96
2023-05-03T09:40:00.969Z, 50.88
2023-05-03T09:41:00.822Z, 50.89
2023-05-03T09:42:00.796Z, 50.96
2023-05-03T09:43:01.570Z, 50.95
2023-05-03T09:44:00.848Z, 50.94
2023-05-03T09:45:00.885Z, 50.84
2023-05-03T09:46:00.902Z, 50.79
2023-05-03T09:47:00.877Z, 50.85
2023-05-03T09:48:00.962Z, 50.83
2023-05-03T09:49:00.906Z, 50.74
2023-05-03T09:50:00.925Z, 50.74
2023-05-03T09:51:00.913Z, 50.74
2023-05-03T09:52:00.896Z, 50.67
2023-05-03T09:53:00.914Z, 50.76
2023-05-03T09:54:00.943Z, 50.76
2023-05-03T09:55:01.313Z, 50.70
2023-05-03T09:56:00.989Z, 50.63
2023-05-03T09:57:01.033Z, 50.67
2023-05-03T09:58:01.031Z, 50.68
2023-05-03T09:59:01.015Z, 50.70
2023-05-03T10:00:01.119Z, 50.65
2023-05-03T10:01:01.105Z, 50.77
2023-05-03T10:02:01.069Z, 52.34
2023-05-03T10:03:01.204Z, 53.28
2023-05-03T10:04:01.109Z, 53.73
2023-05-03T10:05:01.378Z, 53.93
2023-05-03T10:06:01.125Z, 53.91
2023-05-03T10:07:01.121Z, 53.77
2023-05-03T10:08:01.116Z, 53.50
2023-05-03T10:09:01.121Z, 53.60
2023-05-03T10:10:01.138Z, 53.83
2023-05-03T10:11:01.127Z, 53.90
2023-05-03T10:12:01.147Z, 53.79
2023-05-03T10:13:01.175Z, 53.78
2023-05-03T10:14:01.241Z, 53.88
2023-05-03T10:15:01.482Z, 53.91
2023-05-03T10:16:01.287Z, 53.86
2023-05-03T10:17:01.314Z, 53.83
2023-05-03T10:18:01.256Z, 53.85
2023-05-03T10:19:01.284Z, 53.87
2023-05-03T10:20:01.346Z, 53.84
2023-05-03T10:21:01.301Z, 53.76
2023-05-03T10:22:01.368Z, 53.70
2023-05-03T10:23:01.326Z, 53.71
2023-05-03T10:24:01.380Z, 53.82
2023-05-03T10:25:01.742Z, 53.76
2023-05-03T10:26:01.369Z, 53.57
2023-05-03T10:27:01.356Z, 53.45
2023-05-03T10:28:01.366Z, 53.57
2023-05-03T10:29:01.561Z, 53.67
2023-05-03T10:30:01.730Z, 53.59
2023-05-03T10:31:01.504Z, 53.23
2023-05-03T10:32:01.441Z, 52.85
2023-05-03T10:33:01.465Z, 52.62
2023-05-03T10:34:01.437Z, 52.41
2023-05-03T10:35:03.645Z, 52.24
2023-05-03T10:36:01.450Z, 52.11
2023-05-03T10:37:01.581Z, 51.96
2023-05-03T10:38:01.543Z, 51.82
2023-05-03T10:39:01.504Z, 51.77
2023-05-03T10:40:01.550Z, 51.64
2023-05-03T10:41:01.546Z, 51.57
2023-05-03T10:42:01.572Z, 51.50
2023-05-03T10:43:01.553Z, 51.40
2023-05-03T10:44:01.603Z, 51.29
2023-05-03T10:45:01.895Z, 51.24
2023-05-03T10:46:01.607Z, 51.20
2023-05-03T10:47:01.576Z, 51.13
2023-05-03T10:48:01.646Z, 51.03
2023-05-03T10:49:01.613Z, 50.97
2023-05-03T10:50:01.638Z, 50.94
2023-05-03T10:51:01.620Z, 50.93
2023-05-03T10:52:01.643Z, 50.83
2023-05-03T10:53:01.643Z, 50.82
2023-05-03T10:54:01.657Z, 50.79
2023-05-03T10:55:01.927Z, 50.78
2023-05-03T10:56:01.707Z, 50.73
2023-05-03T10:57:01.762Z, 50.68
2023-05-03T10:58:01.758Z, 50.58
2023-05-03T10:59:01.773Z, 50.62
2023-05-03T11:00:01.739Z, 50.60
2023-05-03T11:01:01.783Z, 50.56
2023-05-03T11:02:01.801Z, 50.52
2023-05-03T11:03:01.877Z, 50.53
2023-05-03T11:04:01.819Z, 50.42
2023-05-03T11:05:02.082Z, 50.43
2023-05-03T11:06:01.817Z, 50.40
2023-05-03T11:07:01.852Z, 50.40
2023-05-03T11:08:01.824Z, 50.34
2023-05-03T11:09:01.843Z, 50.37
2023-05-03T11:10:01.869Z, 50.33
2023-05-03T11:11:01.853Z, 50.30
2023-05-03T11:12:01.934Z, 50.27
2023-05-03T11:13:01.913Z, 50.25
2023-05-03T11:14:02.000Z, 50.29
2023-05-03T11:15:02.299Z, 50.26
2023-05-03T11:16:01.961Z, 50.18
2023-05-03T11:17:02.094Z, 50.05
2023-05-03T11:18:02.002Z, 50.20
2023-05-03T11:19:02.034Z, 50.23
2023-05-03T11:20:02.049Z, 50.17
2023-05-03T11:21:02.071Z, 50.07
2023-05-03T11:22:02.051Z, 50.07
2023-05-03T11:23:02.044Z, 50.13
2023-05-03T11:24:02.091Z, 50.03
2023-05-03T11:25:02.269Z, 50.02
2023-05-03T11:26:02.131Z, 50.04
2023-05-03T11:27:07.666Z, 49.94
2023-05-03T11:28:02.166Z, 49.94
2023-05-03T11:29:02.092Z, 49.94
2023-05-03T11:30:02.094Z, 49.91
2023-05-03T11:31:02.124Z, 49.92
2023-05-03T11:32:02.194Z, 49.85
2023-05-03T11:33:02.240Z, 49.86
2023-05-03T11:34:02.134Z, 49.88
2023-05-03T11:35:02.404Z, 49.84
2023-05-03T11:36:02.206Z, 49.80
2023-05-03T11:37:02.194Z, 49.81
2023-05-03T11:38:02.221Z, 49.84
2023-05-03T11:39:02.201Z, 49.82
2023-05-03T11:40:02.309Z, 49.76
2023-05-03T11:41:02.259Z, 49.73
2023-05-03T11:42:02.289Z, 49.73
2023-05-03T11:43:02.282Z, 49.71
2023-05-03T11:44:15.241Z, 49.76
2023-05-03T11:45:02.820Z, 49.68
2023-05-03T11:46:02.315Z, 49.70
2023-05-03T11:47:02.601Z, 49.63
2023-05-03T11:48:02.432Z, 49.63
2023-05-03T11:49:02.577Z, 49.61
2023-05-03T11:50:02.434Z, 49.61
2023-05-03T11:51:02.408Z, 49.64
2023-05-03T11:52:02.451Z, 49.54
2023-05-03T11:53:02.405Z, 49.56
2023-05-03T11:54:10.133Z, 49.45
2023-05-03T11:55:02.673Z, 49.45
2023-05-03T11:56:02.419Z, 49.47
2023-05-03T11:57:02.441Z, 49.47
2023-05-03T11:58:02.437Z, 49.42
2023-05-03T11:59:02.436Z, 49.41
2023-05-03T12:00:02.448Z, 49.34
2023-05-03T12:01:02.524Z, 49.35
2023-05-03T12:02:02.650Z, 49.32
2023-05-03T12:03:02.616Z, 49.35
2023-05-03T12:04:03.186Z, 49.32
2023-05-03T12:05:03.541Z, 49.31
2023-05-03T12:06:03.495Z, 49.31
2023-05-03T12:07:03.384Z, 49.28
2023-05-03T12:08:02.851Z, 49.22
2023-05-03T12:09:02.864Z, 49.22
2023-05-03T12:11:03.872Z, 49.16
2023-05-03T12:12:05.422Z, 49.18
2023-05-03T12:13:04.879Z, 49.09
2023-05-03T12:14:03.004Z, 49.08
2023-05-03T12:15:04.056Z, 49.13
2023-05-03T12:16:11.971Z, 49.08
2023-05-03T12:17:02.751Z, 49.06
2023-05-03T12:18:04.718Z, 49.09
2023-05-03T12:19:03.296Z, 49.09
2023-05-03T12:21:28.957Z, 48.99
2023-05-03T12:23:04.250Z, 49.01
2023-05-03T12:24:05.265Z, 48.93
2023-05-03T12:25:04.310Z, 48.97
2023-05-03T12:26:05.190Z, 48.98
2023-05-03T12:27:03.405Z, 48.96
2023-05-03T12:28:18.820Z, 48.97
2023-05-03T12:29:02.857Z, 48.96
2023-05-03T12:30:03.089Z, 48.92
2023-05-03T12:32:02.900Z, 48.80
2023-05-03T12:33:04.924Z, 48.78